createdAt,value
2022-08-14T04:00:43.207Z,48.11
2022-08-14T04:05:37.939Z,48.91
2022-08-14T04:10:33.046Z,49.21
2022-08-14T04:15:52.740Z,48.81
2022-08-14T04:20:33.413Z,48.41
2022-08-14T04:25:33.362Z,48.41
2022-08-14T04:30:33.102Z,48.61
2022-08-14T04:35:55.395Z,48.41
2022-08-14T04:40:35.365Z,48.11
2022-08-14T04:45:33.147Z,48.31
2022-08-14T04:50:37.978Z,48.31
2022-08-14T04:55:33.041Z,48.51
2022-08-14T05:00:31.991Z,48.11
2022-08-14T05:05:32.264Z,47.71
2022-08-14T05:10:31.882Z,46.61
2022-08-14T05:15:32.036Z,46.70
2022-08-14T05:21:04.295Z,46.20
2022-08-14T05:25:34.251Z,46.11
2022-08-14T05:30:31.668Z,42.69
2022-08-14T05:35:31.611Z,38.18
2022-08-14T05:40:31.561Z,37.38
2022-08-14T05:45:31.504Z,37.28
2022-08-14T05:50:31.453Z,37.28
2022-08-14T05:55:31.399Z,37.28
2022-08-14T06:00:36.938Z,37.08
2022-08-14T06:05:32.288Z,37.08
2022-08-14T06:10:31.246Z,37.79
2022-08-14T06:15:31.193Z,38.59
2022-08-14T06:20:31.142Z,38.18
2022-08-14T06:25:31.086Z,38.49
2022-08-14T06:30:46.184Z,37.48
2022-08-14T06:35:31.984Z,37.48
2022-08-14T06:40:31.009Z,37.68
2022-08-14T06:45:30.882Z,37.38
2022-08-14T06:50:30.879Z,38.09
2022-08-14T06:55:30.777Z,38.29
2022-08-14T07:00:31.481Z,39.29
2022-08-14T07:05:30.677Z,39.39
2022-08-14T07:10:30.625Z,39.49
2022-08-14T07:15:33.721Z,39.99
2022-08-14T07:20:32.021Z,39.59
2022-08-14T07:25:32.700Z,40.59
2022-08-14T07:30:33.703Z,41.60
2022-08-14T07:35:37.393Z,42.30
2022-08-14T07:40:31.319Z,42.99
2022-08-14T07:45:32.045Z,44.10
2022-08-14T07:50:34.441Z,44.70
2022-08-14T07:55:30.170Z,45.30
2022-08-14T08:00:31.521Z,45.30
2022-08-14T08:05:30.063Z,46.30
2022-08-14T08:10:46.517Z,46.00
2022-08-14T08:15:30.997Z,46.41
2022-08-14T08:20:29.914Z,46.30
2022-08-14T08:25:29.860Z,46.70
2022-08-14T08:30:29.812Z,47.00
2022-08-14T08:35:46.297Z,47.00
2022-08-14T08:40:31.186Z,46.70
2022-08-14T08:45:29.654Z,47.00
2022-08-14T08:50:31.384Z,46.30
2022-08-14T08:55:29.555Z,46.70
2022-08-14T09:00:29.558Z,46.00
2022-08-14T09:05:29.451Z,46.50
2022-08-14T09:10:29.403Z,46.70
2022-08-14T09:15:42.403Z,46.41
2022-08-14T09:20:30.829Z,46.50
2022-08-14T09:26:00.674Z,46.11
2022-08-14T09:30:32.987Z,46.20
2022-08-14T09:35:29.147Z,46.50
2022-08-14T09:40:29.371Z,46.41
2022-08-14T09:45:30.431Z,45.90
2022-08-14T09:50:30.016Z,45.90
2022-08-14T09:55:31.298Z,46.30
2022-08-14T10:00:30.690Z,46.20
2022-08-14T10:05:28.845Z,46.30
2022-08-14T10:10:28.799Z,46.20
2022-08-14T10:15:29.975Z,45.50
2022-08-14T10:20:41.491Z,45.30
2022-08-14T10:25:28.653Z,45.40
2022-08-14T10:30:28.587Z,45.60
2022-08-14T10:35:31.091Z,45.80
2022-08-14T10:40:44.376Z,45.30
2022-08-14T10:45:29.439Z,45.40
2022-08-14T10:50:28.385Z,44.70
2022-08-14T10:55:28.335Z,44.70
2022-08-14T11:00:29.473Z,44.90
2022-08-14T11:05:28.525Z,44.70
2022-08-14T11:10:28.177Z,44.50
2022-08-14T11:15:28.138Z,44.90
2022-08-14T11:20:28.083Z,44.30
2022-08-14T11:25:44.088Z,45.20
2022-08-14T11:30:51.337Z,46.00
2022-08-14T11:35:44.234Z,44.80
2022-08-14T11:40:29.346Z,44.80
2022-08-14T11:45:29.850Z,44.70
2022-08-14T11:50:36.027Z,44.90
2022-08-14T11:55:28.737Z,44.60
2022-08-14T12:00:31.541Z,44.80
2022-08-14T12:05:27.629Z,45.50
2022-08-14T12:10:39.079Z,44.80
2022-08-14T12:15:28.532Z,45.00
2022-08-14T12:20:32.176Z,45.20
2022-08-14T12:25:27.471Z,45.20
2022-08-14T12:30:27.375Z,45.20
2022-08-14T12:35:28.451Z,45.40
2022-08-14T12:40:27.278Z,45.50
2022-08-14T12:45:28.181Z,45.20
2022-08-14T12:50:27.185Z,45.50
2022-08-14T12:55:32.776Z,45.30
2022-08-14T13:00:28.076Z,45.50
2022-08-14T13:05:27.499Z,45.40
2022-08-14T13:10:47.030Z,44.70
2022-08-14T13:15:27.927Z,45.10
2022-08-14T13:20:26.882Z,44.70
2022-08-14T13:25:27.833Z,45.70
2022-08-14T13:30:26.781Z,45.30
2022-08-14T13:35:26.732Z,45.00
2022-08-14T13:40:27.105Z,46.70
2022-08-14T13:45:33.616Z,46.41
2022-08-14T13:50:27.582Z,46.30
2022-08-14T13:55:28.035Z,45.60
2022-08-14T14:00:32.702Z,44.60
2022-08-14T14:05:27.426Z,44.80
2022-08-14T14:10:28.397Z,44.80
2022-08-14T14:15:33.909Z,45.40
2022-08-14T14:20:34.557Z,45.50
2022-08-14T14:25:26.228Z,45.00
2022-08-14T14:30:46.190Z,44.80
2022-08-14T14:35:32.768Z,44.80
2022-08-14T14:40:52.304Z,45.50
2022-08-14T14:45:27.031Z,45.60
2022-08-14T14:50:25.982Z,45.40
2022-08-14T14:55:25.935Z,46.30
2022-08-14T15:00:30.915Z,47.50
2022-08-14T15:05:28.318Z,47.81
2022-08-14T15:10:26.878Z,47.41
2022-08-14T15:15:25.729Z,47.31
2022-08-14T15:20:30.159Z,48.01
2022-08-14T15:25:26.629Z,47.71
2022-08-14T15:30:32.537Z,47.71
2022-08-14T15:35:28.049Z,47.41
2022-08-14T15:40:25.578Z,47.11
2022-08-14T15:45:25.513Z,47.61
2022-08-14T15:50:25.375Z,47.41
2022-08-14T15:55:25.321Z,46.20
2022-08-14T16:00:40.432Z,45.80
2022-08-14T16:05:26.216Z,46.11
2022-08-14T16:10:30.091Z,46.20
2022-08-14T16:15:25.115Z,46.30
2022-08-14T16:20:41.073Z,47.11
2022-08-14T16:25:35.414Z,47.31
2022-08-14T16:30:27.830Z,46.41
2022-08-14T16:35:24.918Z,47.41
2022-08-14T16:45:24.817Z,47.31
2022-08-14T16:50:42.972Z,47.41
2022-08-14T16:55:30.306Z,47.61
2022-08-14T17:00:28.000Z,47.91
2022-08-14T17:05:24.609Z,47.71
2022-08-14T17:10:28.205Z,48.51
2022-08-14T17:15:24.508Z,48.31
2022-08-14T17:20:53.187Z,47.71
2022-08-14T17:25:25.401Z,47.71
2022-08-14T17:30:32.200Z,48.51
2022-08-14T17:35:25.301Z,48.31
2022-08-14T17:40:25.782Z,48.21
2022-08-14T17:45:26.630Z,48.11
2022-08-14T17:50:59.798Z,48.11
2022-08-14T17:56:01.455Z,48.31
2022-08-14T18:00:25.038Z,48.31
2022-08-14T18:06:07.755Z,48.31
2022-08-14T18:10:55.234Z,48.11
2022-08-14T18:15:33.694Z,48.31
2022-08-14T18:21:25.562Z,48.61
2022-08-14T18:25:24.783Z,48.21
2022-08-14T18:30:33.352Z,48.31
2022-08-14T18:35:45.367Z,48.31
2022-08-14T18:40:34.659Z,48.31
2022-08-14T18:45:28.705Z,48.11
2022-08-14T18:50:27.679Z,48.61
2022-08-14T18:55:23.458Z,48.61
2022-08-14T19:00:23.404Z,48.51
2022-08-14T19:05:24.354Z,48.41
2022-08-14T19:10:23.309Z,48.51
2022-08-14T19:15:26.056Z,48.81
2022-08-14T19:20:23.190Z,48.71
2022-08-14T19:25:23.137Z,48.41
2022-08-14T19:30:23.088Z,48.61
2022-08-14T19:35:23.034Z,48.61
2022-08-14T19:40:23.044Z,48.61
2022-08-14T19:45:22.932Z,48.61
2022-08-14T19:50:30.951Z,48.61
2022-08-14T19:55:34.436Z,48.21
2022-08-14T20:00:29.174Z,48.61
2022-08-14T20:05:23.724Z,48.61
2022-08-14T20:11:04.042Z,48.21
2022-08-14T20:15:23.615Z,48.61
2022-08-14T20:20:31.588Z,48.61
2022-08-14T20:25:23.511Z,48.41
2022-08-14T20:30:34.958Z,48.61
2022-08-14T20:35:23.411Z,48.41
2022-08-14T20:40:22.499Z,48.51
2022-08-14T20:45:24.144Z,48.51
2022-08-14T20:50:25.441Z,48.61
2022-08-14T20:55:22.215Z,48.21
2022-08-14T21:00:22.137Z,48.41
2022-08-14T21:05:33.997Z,48.31
2022-08-14T21:10:35.992Z,48.31
2022-08-14T21:15:22.987Z,48.11
2022-08-14T21:20:26.982Z,48.11
2022-08-14T21:25:22.868Z,48.51
2022-08-14T21:30:21.818Z,48.11
2022-08-14T21:35:23.020Z,48.81
2022-08-14T21:40:42.689Z,48.51
2022-08-14T21:45:22.662Z,48.41
2022-08-14T21:50:39.431Z,48.61
2022-08-14T21:55:23.698Z,48.51
2022-08-14T22:00:35.301Z,48.51
2022-08-14T22:05:22.447Z,48.61
2022-08-14T22:10:22.792Z,48.61
2022-08-14T22:15:21.931Z,48.61
2022-08-14T22:20:21.290Z,48.61
2022-08-14T22:25:21.387Z,48.61
2022-08-14T22:30:21.183Z,48.61
2022-08-14T22:35:23.512Z,48.41
2022-08-14T22:41:01.140Z,48.61
2022-08-14T22:45:22.024Z,48.41
2022-08-14T22:50:30.780Z,48.61
2022-08-14T22:55:21.920Z,48.61
2022-08-14T23:00:25.733Z,48.41
2022-08-14T23:05:40.303Z,48.81
2022-08-14T23:10:31.647Z,48.41
2022-08-14T23:15:21.696Z,48.61
2022-08-14T23:20:20.648Z,48.21
2022-08-14T23:25:57.462Z,48.31
